createdAt,value
2023-04-22T00:00:41.032Z,5.77
2023-04-22T00:03:10.523Z,6.47
2023-04-22T00:05:38.704Z,4.53
2023-04-22T00:08:06.718Z,4.30
2023-04-22T00:10:34.682Z,4.40
2023-04-22T00:13:02.571Z,3.70
2023-04-22T00:15:30.525Z,4.10
2023-04-22T00:18:00.277Z,2.60
2023-04-22T00:20:32.426Z,2.30
2023-04-22T00:23:00.339Z,2.40
2023-04-22T00:25:28.237Z,2.60
2023-04-22T00:27:56.103Z,2.83
2023-04-22T00:30:23.985Z,2.33
2023-04-22T00:32:51.848Z,2.47
2023-04-22T00:35:19.621Z,2.50
2023-04-22T00:37:48.816Z,1.63
2023-04-22T00:40:19.640Z,2.10
2023-04-22T00:42:48.810Z,1.90
2023-04-22T00:45:18.284Z,2.30
2023-04-22T00:47:46.418Z,1.50
2023-04-22T00:50:14.883Z,1.80
2023-04-22T00:52:42.807Z,1.97
2023-04-22T00:55:12.777Z,2.33
2023-04-22T00:57:41.532Z,2.30
2023-04-22T01:00:10.819Z,2.30
2023-04-22T01:02:41.116Z,2.07
2023-04-22T01:05:10.769Z,2.20
2023-04-22T01:07:38.776Z,2.20
2023-04-22T01:10:07.716Z,2.20
2023-04-22T01:12:37.068Z,2.10
2023-04-22T01:15:05.957Z,1.90
2023-04-22T01:17:34.057Z,1.90
2023-04-22T01:20:03.974Z,1.83
2023-04-22T01:22:36.522Z,2.10
2023-04-22T01:25:06.892Z,1.90
2023-04-22T01:27:36.184Z,1.80
2023-04-22T01:30:05.094Z,2.10
2023-04-22T01:32:33.241Z,2.10
2023-04-22T01:35:01.259Z,1.97
2023-04-22T01:37:29.807Z,2.10
2023-04-22T01:39:58.921Z,1.70
2023-04-22T01:42:28.341Z,2.10
2023-04-22T01:44:56.203Z,1.93
2023-04-22T01:47:24.115Z,2.00
2023-04-22T01:49:52.939Z,2.00
2023-04-22T01:52:21.208Z,1.90
2023-04-22T01:54:49.739Z,2.00
2023-04-22T01:57:17.731Z,2.17
2023-04-22T01:59:46.920Z,2.17
2023-04-22T02:02:15.983Z,2.10
2023-04-22T02:04:43.948Z,2.07
2023-04-22T02:07:11.889Z,2.17
2023-04-22T02:09:40.035Z,1.80
2023-04-22T02:12:08.172Z,2.10
2023-04-22T02:14:36.011Z,1.60
2023-04-22T02:17:06.024Z,2.00
2023-04-22T02:19:33.875Z,1.67
2023-04-22T02:22:03.076Z,2.20
2023-04-22T02:24:31.513Z,2.10
2023-04-22T02:27:00.277Z,2.00
2023-04-22T02:29:29.199Z,2.20
2023-04-22T02:31:59.942Z,1.97
2023-04-22T02:34:30.097Z,2.17
2023-04-22T02:36:57.935Z,2.23
2023-04-22T02:39:26.506Z,1.77
2023-04-22T02:41:54.595Z,1.90
2023-04-22T02:44:22.812Z,2.33
2023-04-22T02:46:50.930Z,1.90
2023-04-22T02:49:19.260Z,2.10
2023-04-22T02:51:48.403Z,1.90
2023-04-22T02:54:16.305Z,2.10
2023-04-22T02:56:44.158Z,2.10
2023-04-22T02:59:12.166Z,2.10
2023-04-22T03:01:40.281Z,1.70
2023-04-22T03:04:12.317Z,2.23
2023-04-22T03:06:40.322Z,2.13
2023-04-22T03:09:12.382Z,2.33
2023-04-22T03:11:40.292Z,2.10
2023-04-22T03:14:11.288Z,1.93
2023-04-22T03:16:40.003Z,2.17
2023-04-22T03:19:08.483Z,2.03
2023-04-22T03:21:36.336Z,2.10
2023-04-22T03:24:04.414Z,2.23
2023-04-22T03:26:35.761Z,2.20
2023-04-22T03:29:05.248Z,2.50
2023-04-22T03:31:33.249Z,2.60
2023-04-22T03:34:01.210Z,2.40
2023-04-22T03:36:31.465Z,2.57
2023-04-22T03:38:59.265Z,2.00
2023-04-22T03:41:27.728Z,2.27
2023-04-22T03:43:58.356Z,2.20
2023-04-22T03:46:27.514Z,2.40
2023-04-22T03:49:10.780Z,2.00
2023-04-22T03:51:38.818Z,2.30
2023-04-22T03:54:12.134Z,2.30
2023-04-22T03:56:46.400Z,2.30
2023-04-22T03:59:15.621Z,2.33
2023-04-22T04:01:43.487Z,2.37
2023-04-22T04:04:11.880Z,2.67
2023-04-22T04:06:47.075Z,2.40
2023-04-22T04:09:14.831Z,2.90
2023-04-22T04:11:42.682Z,2.50
2023-04-22T04:14:11.646Z,3.20
2023-04-22T04:16:47.707Z,3.00
2023-04-22T04:19:24.277Z,3.87
2023-04-22T04:21:52.591Z,2.83
2023-04-22T04:24:21.639Z,2.40
2023-04-22T04:26:51.936Z,2.70
2023-04-22T04:29:25.170Z,2.70
2023-04-22T04:32:05.662Z,3.00
2023-04-22T04:34:37.052Z,3.20
2023-04-22T04:37:06.597Z,4.43
2023-04-22T04:39:46.264Z,3.20
2023-04-22T04:42:15.417Z,3.53
2023-04-22T04:44:51.510Z,4.20
2023-04-22T04:47:22.598Z,3.57
2023-04-22T04:49:54.591Z,3.30
2023-04-22T04:52:22.636Z,2.90
2023-04-22T04:54:50.497Z,3.27
2023-04-22T04:57:18.377Z,2.80
2023-04-22T04:59:46.426Z,2.80
2023-04-22T05:02:15.027Z,2.80
2023-04-22T05:04:44.563Z,2.73
2023-04-22T05:07:12.586Z,2.53
2023-04-22T05:09:42.022Z,2.97
2023-04-22T05:12:10.351Z,6.10
2023-04-22T05:14:38.395Z,2.73
2023-04-22T05:17:06.282Z,3.37
2023-04-22T05:19:35.055Z,3.77
2023-04-22T05:22:04.509Z,2.63
2023-04-22T05:24:32.533Z,2.37
2023-04-22T05:27:00.746Z,3.20
2023-04-22T05:29:29.853Z,2.97
2023-04-22T05:31:57.773Z,3.20
2023-04-22T05:34:25.870Z,2.70
2023-04-22T05:36:55.311Z,2.00
2023-04-22T05:39:24.996Z,2.23
2023-04-22T05:41:54.729Z,2.00
2023-04-22T05:44:23.356Z,1.90
2023-04-22T05:46:51.282Z,2.13
2023-04-22T05:49:21.021Z,1.80
2023-04-22T05:52:07.483Z,1.70
2023-04-22T05:54:49.230Z,1.80
2023-04-22T05:57:17.356Z,1.70
2023-04-22T05:59:46.326Z,1.67
2023-04-22T06:02:15.453Z,1.70
2023-04-22T06:04:43.705Z,1.20
2023-04-22T06:07:11.971Z,1.90
2023-04-22T06:09:40.994Z,1.50
2023-04-22T06:12:12.046Z,1.37
2023-04-22T06:14:40.428Z,1.30
2023-04-22T06:17:09.613Z,1.40
2023-04-22T06:19:38.206Z,1.47
2023-04-22T06:22:06.278Z,1.40
2023-04-22T06:24:34.240Z,1.47
2023-04-22T06:27:02.170Z,1.20
2023-04-22T06:29:32.240Z,1.33
2023-04-22T06:32:00.143Z,1.33
2023-04-22T06:34:28.165Z,1.23
2023-04-22T06:36:56.649Z,1.40
2023-04-22T06:39:24.408Z,1.23
2023-04-22T06:42:05.047Z,1.03
2023-04-22T06:45:08.406Z,0.83
2023-04-22T06:47:44.226Z,1.33
2023-04-22T06:50:17.376Z,1.17
2023-04-22T06:52:58.508Z,1.53
2023-04-22T06:55:26.350Z,3.17
2023-04-22T06:57:54.289Z,1.23
2023-04-22T07:00:23.406Z,1.63
2023-04-22T07:02:51.469Z,1.50
2023-04-22T07:05:19.330Z,1.60
2023-04-22T07:07:47.648Z,1.40
2023-04-22T07:10:20.374Z,1.57
2023-04-22T07:13:08.307Z,1.30
2023-04-22T07:15:37.541Z,1.03
2023-04-22T07:18:05.548Z,1.00
2023-04-22T07:20:33.275Z,1.40
2023-04-22T07:23:01.414Z,1.40
2023-04-22T07:25:29.433Z,1.70
2023-04-22T07:27:57.235Z,1.30
2023-04-22T07:30:25.097Z,1.00
2023-04-22T07:32:54.515Z,1.10
2023-04-22T07:35:22.385Z,1.80
2023-04-22T07:37:50.188Z,1.13
2023-04-22T07:40:20.065Z,1.07
2023-04-22T07:42:47.932Z,1.20
2023-04-22T07:45:15.773Z,1.43
2023-04-22T07:47:43.727Z,1.37
2023-04-22T07:50:13.257Z,1.23
2023-04-22T07:52:41.110Z,1.60
2023-04-22T07:55:09.820Z,1.40
2023-04-22T07:57:39.044Z,1.63
2023-04-22T08:00:08.830Z,1.30
2023-04-22T08:02:44.119Z,0.90
2023-04-22T08:05:13.650Z,1.50
2023-04-22T08:07:41.532Z,0.93
2023-04-22T08:10:10.430Z,1.10
2023-04-22T08:12:38.434Z,1.30
2023-04-22T08:15:07.432Z,1.07
2023-04-22T08:17:35.379Z,1.60
2023-04-22T08:20:05.859Z,1.40
2023-04-22T08:22:36.674Z,1.17
2023-04-22T08:25:04.699Z,0.80
2023-04-22T08:27:32.574Z,1.13
2023-04-22T08:30:00.441Z,1.50
2023-04-22T08:32:28.319Z,0.80
2023-04-22T08:35:04.020Z,0.90
2023-04-22T08:37:32.450Z,0.90
2023-04-22T08:40:01.814Z,1.13
2023-04-22T08:42:30.668Z,0.90
2023-04-22T08:44:59.005Z,0.70
2023-04-22T08:47:27.511Z,1.00
2023-04-22T08:49:56.867Z,0.80
2023-04-22T08:52:24.780Z,1.00
2023-04-22T08:54:53.022Z,0.80
2023-04-22T08:57:25.255Z,0.70
2023-04-22T08:59:55.552Z,0.60
2023-04-22T09:02:25.886Z,0.90
2023-04-22T09:04:54.653Z,0.87
2023-04-22T09:07:25.157Z,1.13
2023-04-22T09:09:54.028Z,0.73
2023-04-22T09:12:22.120Z,0.87
2023-04-22T09:14:51.367Z,1.00
2023-04-22T09:17:19.776Z,0.90
2023-04-22T09:19:57.997Z,0.80
2023-04-22T09:22:26.942Z,0.80
2023-04-22T09:24:55.270Z,0.90
2023-04-22T09:27:31.914Z,0.90
2023-04-22T09:30:01.162Z,0.80
2023-04-22T09:32:29.434Z,0.83
2023-04-22T09:34:58.370Z,0.83
2023-04-22T09:37:35.834Z,0.80
2023-04-22T09:40:10.995Z,0.77
2023-04-22T09:42:51.083Z,0.80
2023-04-22T09:45:31.039Z,0.60
2023-04-22T09:48:01.901Z,0.70
2023-04-22T09:50:30.094Z,0.93
2023-04-22T09:53:05.409Z,0.90
2023-04-22T09:55:35.637Z,0.60
2023-04-22T09:58:08.780Z,0.83
2023-04-22T10:00:41.962Z,0.70
2023-04-22T10:03:10.739Z,0.80
2023-04-22T10:05:39.217Z,0.70
2023-04-22T10:08:08.324Z,1.03
2023-04-22T10:10:36.292Z,0.90
2023-04-22T10:13:05.450Z,0.77
2023-04-22T10:15:35.635Z,0.80
2023-04-22T10:18:07.909Z,0.90
2023-04-22T10:20:38.861Z,0.50
2023-04-22T10:23:07.857Z,0.63
2023-04-22T10:25:35.709Z,0.73
2023-04-22T10:28:04.989Z,0.60
2023-04-22T10:30:34.189Z,0.67
2023-04-22T10:33:40.643Z,0.60
2023-04-22T10:36:11.224Z,0.50
2023-04-22T10:38:41.913Z,0.63
2023-04-22T10:41:15.069Z,0.70
2023-04-22T10:43:44.039Z,0.60
2023-04-22T10:46:45.492Z,0.80
2023-04-22T10:49:20.533Z,0.73
2023-04-22T10:51:49.922Z,0.67
2023-04-22T10:54:47.400Z,0.90
2023-04-22T10:57:22.450Z,1.07
2023-04-22T10:59:53.308Z,0.50
2023-04-22T11:02:22.761Z,1.20
2023-04-22T11:04:54.384Z,2.30
2023-04-22T11:07:34.870Z,1.10
2023-04-22T11:10:10.489Z,0.80
2023-04-22T11:12:44.858Z,1.00
2023-04-22T11:15:14.975Z,0.70
2023-04-22T11:17:44.677Z,1.23
2023-04-22T11:20:17.312Z,1.00
2023-04-22T11:22:47.030Z,0.90
2023-04-22T11:25:15.373Z,0.83
2023-04-22T11:27:44.083Z,0.93
2023-04-22T11:30:14.950Z,0.83
2023-04-22T11:32:44.677Z,1.00
2023-04-22T11:35:15.549Z,0.90
2023-04-22T11:37:45.554Z,1.00
2023-04-22T11:40:28.814Z,0.90
2023-04-22T11:42:58.796Z,1.77
2023-04-22T11:45:29.895Z,0.90
2023-04-22T11:47:58.049Z,1.30
2023-04-22T11:50:29.269Z,1.47
2023-04-22T11:52:58.919Z,1.13
2023-04-22T11:55:30.468Z,0.90
2023-04-22T11:58:01.368Z,1.07
2023-04-22T12:00:33.897Z,0.90
2023-04-22T12:03:03.552Z,0.90
2023-04-22T12:05:40.788Z,0.80
2023-04-22T12:08:11.842Z,0.73
2023-04-22T12:10:45.036Z,0.90
2023-04-22T12:13:19.888Z,1.27
2023-04-22T12:15:48.128Z,1.00
2023-04-22T12:18:15.992Z,0.97
2023-04-22T12:20:45.215Z,0.90
2023-04-22T12:23:15.301Z,0.97
2023-04-22T12:25:43.934Z,0.83
2023-04-22T12:28:14.279Z,0.90
2023-04-22T12:30:42.314Z,0.93
2023-04-22T12:33:10.638Z,1.00
2023-04-22T12:35:38.428Z,0.80
2023-04-22T12:38:07.617Z,1.00
2023-04-22T12:40:35.411Z,0.90
2023-04-22T12:43:05.961Z,1.10
2023-04-22T12:45:33.956Z,3.60
2023-04-22T12:48:01.951Z,1.30
2023-04-22T12:50:29.784Z,1.07
2023-04-22T12:52:57.642Z,1.00
2023-04-22T12:55:27.364Z,1.10
2023-04-22T12:57:55.480Z,0.97
2023-04-22T13:00:24.376Z,1.00
2023-04-22T13:02:52.830Z,0.90
2023-04-22T13:05:20.835Z,1.07
2023-04-22T13:07:56.393Z,0.93
2023-04-22T13:10:36.097Z,1.00
2023-04-22T13:13:17.104Z,4.50
2023-04-22T13:15:46.136Z,0.80
2023-04-22T13:18:13.946Z,0.90
2023-04-22T13:20:42.624Z,1.43
2023-04-22T13:23:10.832Z,1.20
2023-04-22T13:25:40.037Z,1.00
2023-04-22T13:28:07.938Z,1.50
2023-04-22T13:30:35.722Z,1.20
2023-04-22T13:33:04.004Z,1.33
2023-04-22T13:35:31.812Z,1.00
2023-04-22T13:37:59.705Z,1.10
2023-04-22T13:40:27.685Z,1.10
2023-04-22T13:42:56.853Z,1.10
2023-04-22T13:45:25.603Z,1.00
2023-04-22T13:47:54.654Z,1.10
2023-04-22T13:50:22.658Z,0.83
2023-04-22T13:52:50.844Z,1.13
2023-04-22T13:55:19.040Z,1.10
2023-04-22T13:57:47.047Z,1.00
2023-04-22T14:00:16.668Z,1.00
2023-04-22T14:02:44.576Z,1.43
2023-04-22T14:05:12.564Z,1.30
2023-04-22T14:07:40.343Z,1.23
2023-04-22T14:10:11.989Z,1.00
2023-04-22T14:12:40.498Z,1.13
2023-04-22T14:15:10.881Z,1.60
2023-04-22T14:17:40.435Z,0.80
2023-04-22T14:20:10.782Z,1.10
2023-04-22T14:22:38.607Z,1.20
2023-04-22T14:25:07.824Z,1.30
2023-04-22T14:27:35.630Z,1.30
2023-04-22T14:30:04.881Z,1.20
2023-04-22T14:32:32.908Z,1.37
2023-04-22T14:35:02.568Z,1.00
2023-04-22T14:37:31.634Z,1.50
2023-04-22T14:39:59.613Z,1.47
2023-04-22T14:42:28.179Z,1.50
2023-04-22T14:44:55.972Z,1.30
2023-04-22T14:47:23.823Z,1.40
2023-04-22T14:49:51.665Z,1.20
2023-04-22T14:52:20.964Z,1.30
2023-04-22T14:54:51.258Z,1.50
2023-04-22T14:57:19.748Z,1.40
2023-04-22T14:59:47.559Z,1.40
2023-04-22T15:02:16.016Z,1.77
2023-04-22T15:04:44.144Z,1.10
2023-04-22T15:07:11.985Z,1.27
2023-04-22T15:09:41.650Z,1.10
2023-04-22T15:12:09.786Z,1.27
2023-04-22T15:14:37.755Z,1.30
2023-04-22T15:17:06.399Z,1.50
2023-04-22T15:19:34.313Z,1.20
2023-04-22T15:22:02.124Z,1.20
2023-04-22T15:24:30.217Z,1.20
2023-04-22T15:26:59.979Z,1.30
2023-04-22T15:29:28.452Z,1.40
2023-04-22T15:31:56.826Z,1.60
2023-04-22T15:34:25.288Z,1.63
2023-04-22T15:36:53.157Z,1.33
2023-04-22T15:39:21.263Z,1.37
2023-04-22T15:41:49.137Z,1.90
2023-04-22T15:44:18.371Z,1.60
2023-04-22T15:46:46.794Z,1.50
2023-04-22T15:49:15.590Z,1.43
2023-04-22T15:51:43.644Z,1.73
2023-04-22T15:54:14.096Z,1.33
2023-04-22T15:56:41.987Z,1.50
2023-04-22T15:59:10.111Z,1.63
2023-04-22T16:01:40.714Z,1.70
2023-04-22T16:04:09.314Z,1.60
2023-04-22T16:06:38.121Z,1.70
2023-04-22T16:09:06.050Z,1.40
2023-04-22T16:11:35.711Z,1.50
2023-04-22T16:14:03.575Z,1.37
2023-04-22T16:16:32.870Z,1.53
2023-04-22T16:19:02.136Z,1.67
2023-04-22T16:21:32.223Z,2.70
2023-04-22T16:24:00.885Z,2.10
2023-04-22T16:26:28.812Z,1.13
2023-04-22T16:28:56.801Z,1.47
2023-04-22T16:31:24.871Z,1.47
2023-04-22T16:33:53.401Z,1.40
2023-04-22T16:36:22.747Z,1.47
2023-04-22T16:38:50.625Z,1.70
2023-04-22T16:41:18.507Z,2.30
2023-04-22T16:43:46.627Z,2.13
2023-04-22T16:46:14.639Z,2.17
2023-04-22T16:48:42.927Z,2.87
2023-04-22T16:51:10.851Z,1.80
2023-04-22T16:53:40.147Z,2.00
2023-04-22T16:56:08.123Z,1.97
2023-04-22T16:58:36.023Z,1.70
2023-04-22T17:01:04.186Z,1.70
2023-04-22T17:03:32.748Z,1.70
2023-04-22T17:06:00.651Z,2.00
2023-04-22T17:08:28.926Z,1.83
2023-04-22T17:10:58.147Z,1.60
2023-04-22T17:13:26.098Z,1.70
2023-04-22T17:15:53.939Z,1.90
2023-04-22T17:18:21.768Z,1.47
2023-04-22T17:20:50.120Z,1.90
2023-04-22T17:23:18.471Z,2.40
2023-04-22T17:25:47.014Z,2.00
2023-04-22T17:28:16.712Z,1.80
2023-04-22T17:30:44.780Z,1.90
2023-04-22T17:33:12.839Z,1.80
2023-04-22T17:35:40.586Z,1.80
2023-04-22T17:38:08.422Z,1.57
2023-04-22T17:40:36.305Z,1.33
2023-04-22T17:43:06.675Z,2.30
2023-04-22T17:45:36.010Z,1.60
2023-04-22T17:48:03.926Z,1.90
2023-04-22T17:50:32.036Z,1.70
2023-04-22T17:52:59.952Z,1.90
2023-04-22T17:55:30.254Z,2.10
2023-04-22T17:58:00.006Z,2.30
2023-04-22T18:00:27.998Z,1.73
2023-04-22T18:02:57.587Z,1.90
2023-04-22T18:05:27.040Z,1.90
2023-04-22T18:07:58.090Z,1.93
2023-04-22T18:10:25.909Z,1.80
2023-04-22T18:12:53.694Z,1.97
2023-04-22T18:15:23.407Z,1.70
2023-04-22T18:17:51.441Z,1.90
2023-04-22T18:20:20.878Z,1.97
2023-04-22T18:22:51.979Z,1.83
2023-04-22T18:25:20.002Z,1.77
2023-04-22T18:27:50.054Z,2.00
2023-04-22T18:30:18.092Z,1.90
2023-04-22T18:32:46.049Z,1.70
2023-04-22T18:35:15.800Z,1.67
2023-04-22T18:37:45.523Z,2.20
2023-04-22T18:40:14.407Z,2.10
2023-04-22T18:42:44.630Z,2.20
2023-04-22T18:45:13.092Z,1.90
2023-04-22T18:47:41.478Z,2.00
2023-04-22T18:50:09.891Z,1.90
2023-04-22T18:52:37.887Z,2.10
2023-04-22T18:55:07.754Z,2.17
2023-04-22T18:57:36.021Z,2.00
2023-04-22T19:00:06.177Z,2.30
2023-04-22T19:02:37.257Z,2.03
2023-04-22T19:05:07.002Z,2.33
2023-04-22T19:07:34.943Z,2.20
2023-04-22T19:10:03.011Z,2.20
2023-04-22T19:12:32.189Z,2.43
2023-04-22T19:15:00.373Z,3.30
2023-04-22T19:17:28.845Z,2.90
2023-04-22T19:19:56.898Z,3.70
2023-04-22T19:22:24.826Z,2.83
2023-04-22T19:24:52.691Z,3.00
2023-04-22T19:27:20.728Z,3.53
2023-04-22T19:29:51.733Z,3.70
2023-04-22T19:32:19.956Z,3.87
2023-04-22T19:34:49.750Z,3.80
2023-04-22T19:37:18.163Z,3.90
2023-04-22T19:39:46.035Z,2.90
2023-04-22T19:42:13.882Z,2.90
2023-04-22T19:44:46.415Z,2.60
2023-04-22T19:47:16.219Z,2.60
2023-04-22T19:49:44.504Z,2.67
2023-04-22T19:52:15.433Z,2.50
2023-04-22T19:54:47.681Z,2.60
2023-04-22T19:57:16.132Z,2.10
2023-04-22T19:59:45.828Z,2.40
2023-04-22T20:02:15.630Z,2.20
2023-04-22T20:04:44.083Z,2.03
2023-04-22T20:07:13.189Z,2.00
2023-04-22T20:09:42.329Z,2.17
2023-04-22T20:12:11.070Z,2.30
2023-04-22T20:14:39.300Z,1.97
2023-04-22T20:17:07.549Z,2.20
2023-04-22T20:19:37.511Z,2.37
2023-04-22T20:22:07.656Z,2.30
2023-04-22T20:24:39.637Z,2.20
2023-04-22T20:27:07.939Z,2.07
2023-04-22T20:29:38.087Z,2.13
2023-04-22T20:32:06.870Z,2.30
2023-04-22T20:34:37.077Z,2.33
2023-04-22T20:37:09.691Z,2.43
2023-04-22T20:39:39.403Z,2.30
2023-04-22T20:42:08.175Z,2.50
2023-04-22T20:44:36.641Z,2.43
2023-04-22T20:47:04.440Z,2.27
2023-04-22T20:49:32.253Z,2.60
2023-04-22T20:52:02.265Z,2.63
2023-04-22T20:54:30.275Z,2.50
2023-04-22T20:56:58.890Z,2.40
2023-04-22T20:59:26.838Z,2.70
2023-04-22T21:01:55.379Z,2.13
2023-04-22T21:04:24.192Z,2.53
2023-04-22T21:06:52.682Z,2.30
2023-04-22T21:09:24.736Z,2.60
2023-04-22T21:11:54.602Z,2.47
2023-04-22T21:14:26.135Z,2.33
2023-04-22T21:17:01.116Z,2.37
2023-04-22T21:19:33.089Z,2.60
2023-04-22T21:22:20.096Z,2.80
2023-04-22T21:24:49.122Z,2.97
2023-04-22T21:27:18.308Z,3.00
2023-04-22T21:29:48.469Z,3.10
2023-04-22T21:32:17.362Z,3.80
2023-04-22T21:34:45.951Z,3.90
2023-04-22T21:37:19.755Z,3.57
2023-04-22T21:39:49.748Z,2.93
2023-04-22T21:42:21.949Z,3.17
2023-04-22T21:44:52.736Z,3.43
2023-04-22T21:47:22.131Z,3.33
2023-04-22T21:49:52.479Z,3.20
2023-04-22T21:52:22.350Z,2.87
2023-04-22T21:54:53.544Z,3.03
2023-04-22T21:57:26.092Z,2.77
2023-04-22T21:59:54.068Z,2.60
2023-04-22T22:02:26.464Z,2.80
2023-04-22T22:04:54.761Z,2.90
2023-04-22T22:07:24.068Z,3.23
2023-04-22T22:09:52.871Z,6.43
2023-04-22T22:12:23.280Z,7.80
2023-04-22T22:14:51.321Z,2.30
2023-04-22T22:17:19.647Z,2.77
2023-04-22T22:19:48.722Z,3.50
2023-04-22T22:22:16.672Z,2.90
2023-04-22T22:24:46.569Z,2.60
2023-04-22T22:27:14.594Z,2.70
2023-04-22T22:29:42.582Z,2.73
2023-04-22T22:32:10.428Z,3.20
2023-04-22T22:34:38.553Z,3.60
2023-04-22T22:37:07.030Z,3.07
2023-04-22T22:39:34.968Z,2.80
2023-04-22T22:42:04.286Z,3.37
2023-04-22T22:44:32.160Z,3.00
2023-04-22T22:47:00.128Z,7.07
2023-04-22T22:49:27.946Z,4.60
2023-04-22T22:51:56.034Z,4.03
2023-04-22T22:54:23.903Z,3.97
2023-04-22T22:56:51.772Z,8.77
2023-04-22T22:59:20.978Z,3.43
2023-04-22T23:01:48.869Z,3.40
2023-04-22T23:04:17.028Z,3.93
2023-04-22T23:06:45.054Z,3.13
2023-04-22T23:09:14.130Z,3.27
2023-04-22T23:11:41.989Z,2.90
2023-04-22T23:14:10.554Z,4.23
2023-04-22T23:16:39.827Z,2.70
2023-04-22T23:19:08.076Z,3.03
2023-04-22T23:21:36.524Z,2.97
2023-04-22T23:24:04.877Z,2.50
2023-04-22T23:26:33.205Z,3.10
2023-04-22T23:29:01.563Z,2.50
2023-04-22T23:31:31.216Z,2.60
2023-04-22T23:34:02.684Z,2.63
2023-04-22T23:36:31.417Z,2.80
2023-04-22T23:38:59.454Z,2.43
2023-04-22T23:41:27.442Z,2.40
2023-04-22T23:43:55.346Z,2.30
2023-04-22T23:46:23.378Z,2.50
2023-04-22T23:48:51.324Z,2.50
2023-04-22T23:51:20.564Z,2.00
2023-04-22T23:53:48.519Z,2.33
2023-04-22T23:56:20.189Z,2.50
2023-04-22T23:58:48.741Z,2.73
